sensor_id;sensor_type;location;lat;lon;timestamp;pressure;altitude;pressure_sealevel;temperature;humidity
20160;BME280;50187;50.492;12.134;2023-10-13T00:01:43;97571.75;;;20.73;53.62
20160;BME280;50187;50.492;12.134;2023-10-13T00:04:29;97561.63;;;20.75;53.59
20160;BME280;50187;50.492;12.134;2023-10-13T00:07:14;97557.56;;;20.71;53.62
20160;BME280;50187;50.492;12.134;2023-10-13T00:09:59;97557.22;;;20.74;53.78
20160;BME280;50187;50.492;12.134;2023-10-13T00:12:45;97556.72;;;20.70;53.49
20160;BME280;50187;50.492;12.134;2023-10-13T00:15:46;97553.84;;;20.72;53.44
20160;BME280;50187;50.492;12.134;2023-10-13T00:18:44;97555.03;;;20.69;53.65
20160;BME280;50187;50.492;12.134;2023-10-13T00:21:30;97556.72;;;20.70;53.38
20160;BME280;50187;50.492;12.134;2023-10-13T00:24:17;97559.53;;;20.61;53.61
20160;BME280;50187;50.492;12.134;2023-10-13T00:27:12;97562.28;;;20.69;53.43
20160;BME280;50187;50.492;12.134;2023-10-13T00:30:12;97558.19;;;20.65;53.61
20160;BME280;50187;50.492;12.134;2023-10-13T00:33:05;97563.59;;;20.65;53.33
20160;BME280;50187;50.492;12.134;2023-10-13T00:35:53;97551.09;;;20.64;53.31
20160;BME280;50187;50.492;12.134;2023-10-13T00:38:41;97551.75;;;20.66;53.32
20160;BME280;50187;50.492;12.134;2023-10-13T00:41:26;97560.59;;;20.68;53.43
20160;BME280;50187;50.492;12.134;2023-10-13T00:44:50;97566.13;;;20.66;53.26
20160;BME280;50187;50.492;12.134;2023-10-13T00:47:37;97558.19;;;20.65;53.28
20160;BME280;50187;50.492;12.134;2023-10-13T00:50:33;97559.19;;;20.64;53.46
20160;BME280;50187;50.492;12.134;2023-10-13T00:53:21;97564.94;;;20.61;53.19
20160;BME280;50187;50.492;12.134;2023-10-13T00:56:07;97575.25;;;20.65;53.33
20160;BME280;50187;50.492;12.134;2023-10-13T00:58:54;97572.72;;;20.64;53.38
20160;BME280;50187;50.492;12.134;2023-10-13T01:01:44;97571.34;;;20.59;53.30
20160;BME280;50187;50.492;12.134;2023-10-13T01:04:30;97564.94;;;20.61;53.32
20160;BME280;50187;50.492;12.134;2023-10-13T01:07:17;97577.59;;;20.60;53.15
20160;BME280;50187;50.492;12.134;2023-10-13T01:10:10;97566.78;;;20.60;53.31
20160;BME280;50187;50.492;12.134;2023-10-13T01:13:00;97573.88;;;20.61;53.16
20160;BME280;50187;50.492;12.134;2023-10-13T01:15:49;97572.34;;;20.58;53.14
20160;BME280;50187;50.492;12.134;2023-10-13T01:18:35;97564.25;;;20.58;53.31
20160;BME280;50187;50.492;12.134;2023-10-13T01:21:33;97569.47;;;20.60;53.24
20160;BME280;50187;50.492;12.134;2023-10-13T01:24:18;97564.25;;;20.58;53.29
20160;BME280;50187;50.492;12.134;2023-10-13T01:27:11;97571.69;;;20.56;53.38
20160;BME280;50187;50.492;12.134;2023-10-13T01:30:04;97569.34;;;20.62;53.38
20160;BME280;50187;50.492;12.134;2023-10-13T01:33:07;97559.88;;;20.57;53.13
20160;BME280;50187;50.492;12.134;2023-10-13T01:35:57;97556.31;;;20.57;53.06
20160;BME280;50187;50.492;12.134;2023-10-13T01:38:44;97559.19;;;20.55;53.07
20160;BME280;50187;50.492;12.134;2023-10-13T01:41:31;97558.19;;;20.56;53.04
20160;BME280;50187;50.492;12.134;2023-10-13T01:44:17;97547.00;;;20.51;52.93
20160;BME280;50187;50.492;12.134;2023-10-13T01:47:02;97554.78;;;20.54;52.93
20160;BME280;50187;50.492;12.134;2023-10-13T01:49:51;97561.03;;;20.55;53.09
20160;BME280;50187;50.492;12.134;2023-10-13T01:52:36;97560.19;;;20.54;53.14
20160;BME280;50187;50.492;12.134;2023-10-13T01:55:22;97546.16;;;20.51;53.11
20160;BME280;50187;50.492;12.134;2023-10-13T01:58:07;97552.78;;;20.56;53.08
20160;BME280;50187;50.492;12.134;2023-10-13T02:00:59;97570.84;;;20.56;53.14
20160;BME280;50187;50.492;12.134;2023-10-13T02:03:45;97548.16;;;20.49;52.97
20160;BME280;50187;50.492;12.134;2023-10-13T02:06:34;97545.00;;;20.53;52.99
20160;BME280;50187;50.492;12.134;2023-10-13T02:09:21;97534.84;;;20.55;52.92
20160;BME280;50187;50.492;12.134;2023-10-13T02:12:14;97536.91;;;20.53;52.92
20160;BME280;50187;50.492;12.134;2023-10-13T02:15:01;97537.38;;;20.49;53.12
20160;BME280;50187;50.492;12.134;2023-10-13T02:17:50;97557.81;;;20.51;52.80
20160;BME280;50187;50.492;12.134;2023-10-13T02:20:40;97549.03;;;20.49;52.82
20160;BME280;50187;50.492;12.134;2023-10-13T02:23:31;97552.06;;;20.54;52.98
20160;BME280;50187;50.492;12.134;2023-10-13T02:26:16;97548.72;;;20.52;53.04
20160;BME280;50187;50.492;12.134;2023-10-13T02:29:15;97547.19;;;20.50;52.99
20160;BME280;50187;50.492;12.134;2023-10-13T02:32:03;97548.88;;;20.51;52.89
20160;BME280;50187;50.492;12.134;2023-10-13T02:34:50;97552.56;;;20.50;52.98
20160;BME280;50187;50.492;12.134;2023-10-13T02:37:35;97549.88;;;20.50;52.79
20160;BME280;50187;50.492;12.134;2023-10-13T02:40:21;97543.47;;;20.51;52.77
20160;BME280;50187;50.492;12.134;2023-10-13T02:43:08;97536.38;;;20.50;52.90
20160;BME280;50187;50.492;12.134;2023-10-13T02:45:54;97533.31;;;20.45;52.88
20160;BME280;50187;50.492;12.134;2023-10-13T02:48:43;97532.81;;;20.49;52.91
20160;BME280;50187;50.492;12.134;2023-10-13T02:51:31;97526.72;;;20.47;52.86
20160;BME280;50187;50.492;12.134;2023-10-13T02:54:21;97523.03;;;20.48;52.92
20160;BME280;50187;50.492;12.134;2023-10-13T02:57:06;97518.44;;;20.49;52.75
20160;BME280;50187;50.492;12.134;2023-10-13T02:59:52;97523.69;;;20.50;52.67
20160;BME280;50187;50.492;12.134;2023-10-13T03:02:56;97523.69;;;20.50;52.87
20160;BME280;50187;50.492;12.134;2023-10-13T03:05:45;97514.91;;;20.48;52.72
20160;BME280;50187;50.492;12.134;2023-10-13T03:08:30;97503.28;;;20.48;52.78
20160;BME280;50187;50.492;12.134;2023-10-13T03:11:16;97513.22;;;20.47;52.67
20160;BME280;50187;50.492;12.134;2023-10-13T03:14:06;97521.50;;;20.46;52.97
20160;BME280;50187;50.492;12.134;2023-10-13T03:16:53;97502.25;;;20.49;52.96
20160;BME280;50187;50.492;12.134;2023-10-13T03:19:43;97495.66;;;20.43;52.73
20160;BME280;50187;50.492;12.134;2023-10-13T03:22:35;97499.88;;;20.46;52.71
20160;BME280;50187;50.492;12.134;2023-10-13T03:25:21;97505.13;;;20.47;52.64
20160;BME280;50187;50.492;12.134;2023-10-13T03:28:22;97498.19;;;20.45;52.75
20160;BME280;50187;50.492;12.134;2023-10-13T03:31:19;97504.28;;;20.47;52.75
20160;BME280;50187;50.492;12.134;2023-10-13T03:34:05;97495.47;;;20.45;52.49
20160;BME280;50187;50.492;12.134;2023-10-13T03:36:51;97500.75;;;20.46;52.58
20160;BME280;50187;50.492;12.134;2023-10-13T03:39:42;97491.94;;;20.44;52.60
20160;BME280;50187;50.492;12.134;2023-10-13T03:42:29;97501.75;;;20.45;52.57
20160;BME280;50187;50.492;12.134;2023-10-13T03:45:16;97484.84;;;20.43;52.69
20160;BME280;50187;50.492;12.134;2023-10-13T03:48:38;97486.53;;;20.44;52.61
20160;BME280;50187;50.492;12.134;2023-10-13T03:51:16;97478.94;;;20.39;52.48
20160;BME280;50187;50.492;12.134;2023-10-13T03:54:01;97469.13;;;20.38;52.65
20160;BME280;50187;50.492;12.134;2023-10-13T03:56:53;97485.53;;;20.45;52.58
20160;BME280;50187;50.492;12.134;2023-10-13T03:59:41;97492.78;;;20.45;52.62
20160;BME280;50187;50.492;12.134;2023-10-13T04:02:31;97492.09;;;20.42;52.64
20160;BME280;50187;50.492;12.134;2023-10-13T04:05:17;97463.91;;;20.37;52.56
20160;BME280;50187;50.492;12.134;2023-10-13T04:08:19;97488.41;;;20.44;52.58
20160;BME280;50187;50.492;12.134;2023-10-13T04:11:13;97481.13;;;20.44;52.74
20160;BME280;50187;50.492;12.134;2023-10-13T04:14:17;97483.34;;;20.40;52.48
20160;BME280;50187;50.492;12.134;2023-10-13T04:17:09;97495.81;;;20.41;52.74
20160;BME280;50187;50.492;12.134;2023-10-13T04:20:01;97491.75;;;20.37;52.69
20160;BME280;50187;50.492;12.134;2023-10-13T04:22:52;97476.25;;;20.39;52.40
20160;BME280;50187;50.492;12.134;2023-10-13T04:25:37;97475.38;;;20.39;52.56
20160;BME280;50187;50.492;12.134;2023-10-13T04:28:32;97475.06;;;20.42;52.58
20160;BME280;50187;50.492;12.134;2023-10-13T04:31:22;97479.78;;;20.40;52.43
20160;BME280;50187;50.492;12.134;2023-10-13T04:34:31;97481.47;;;20.41;52.39
20160;BME280;50187;50.492;12.134;2023-10-13T04:37:24;97477.94;;;20.40;52.61
20160;BME280;50187;50.492;12.134;2023-10-13T04:40:32;97459.03;;;20.40;52.43
20160;BME280;50187;50.492;12.134;2023-10-13T04:43:21;97441.78;;;20.33;52.54
20160;BME280;50187;50.492;12.134;2023-10-13T04:46:29;97457.16;;;20.41;52.49
20160;BME280;50187;50.492;12.134;2023-10-13T04:49:21;97440.94;;;20.33;52.59
20160;BME280;50187;50.492;12.134;2023-10-13T04:52:25;97452.75;;;20.40;52.41
20160;BME280;50187;50.492;12.134;2023-10-13T04:55:33;97443.63;;;20.33;52.51
20160;BME280;50187;50.492;12.134;2023-10-13T04:58:52;97448.34;;;20.39;52.60
20160;BME280;50187;50.492;12.134;2023-10-13T05:01:56;97428.25;;;20.33;52.58
20160;BME280;50187;50.492;12.134;2023-10-13T05:05:05;97448.34;;;20.39;52.49
20160;BME280;50187;50.492;12.134;2023-10-13T05:07:51;97443.47;;;20.34;52.49
20160;BME280;50187;50.492;12.134;2023-10-13T05:10:55;97452.75;;;20.40;52.65
20160;BME280;50187;50.492;12.134;2023-10-13T05:13:59;97455.63;;;20.38;52.55
20160;BME280;50187;50.492;12.134;2023-10-13T05:17:04;97444.34;;;20.35;52.60
20160;BME280;50187;50.492;12.134;2023-10-13T05:20:08;97441.63;;;20.35;52.63
20160;BME280;50187;50.492;12.134;2023-10-13T05:23:12;97439.94;;;20.34;52.66
20160;BME280;50187;50.492;12.134;2023-10-13T05:26:16;97443.28;;;20.36;52.50
20160;BME280;50187;50.492;12.134;2023-10-13T05:29:20;97451.38;;;20.28;52.72
20160;BME280;50187;50.492;12.134;2023-10-13T05:32:25;97449.88;;;20.41;52.77
20160;BME280;50187;50.492;12.134;2023-10-13T05:35:31;97441.63;;;20.43;52.37
20160;BME280;50187;50.492;12.134;2023-10-13T05:38:35;97450.91;;;20.40;52.50
20160;BME280;50187;50.492;12.134;2023-10-13T05:41:39;97455.47;;;20.40;52.58
20160;BME280;50187;50.492;12.134;2023-10-13T05:44:43;97460.03;;;20.39;52.64
20160;BME280;50187;50.492;12.134;2023-10-13T05:47:47;97457.16;;;20.41;52.51
20160;BME280;50187;50.492;12.134;2023-10-13T05:50:35;97454.47;;;20.41;52.63
20160;BME280;50187;50.492;12.134;2023-10-13T05:53:56;97452.41;;;20.43;52.62
20160;BME280;50187;50.492;12.134;2023-10-13T05:56:59;97458.00;;;20.41;52.54
20160;BME280;50187;50.492;12.134;2023-10-13T06:00:04;97461.88;;;20.39;52.67
20160;BME280;50187;50.492;12.134;2023-10-13T06:03:08;97458.16;;;20.40;52.47
20160;BME280;50187;50.492;12.134;2023-10-13T06:06:12;97459.03;;;20.40;52.51
20160;BME280;50187;50.492;12.134;2023-10-13T06:09:16;97465.25;;;20.41;52.42
20160;BME280;50187;50.492;12.134;2023-10-13T06:12:24;97456.47;;;20.39;52.52
20160;BME280;50187;50.492;12.134;2023-10-13T06:15:28;97459.16;;;20.39;52.59
20160;BME280;50187;50.492;12.134;2023-10-13T06:18:32;97457.16;;;20.41;52.49
20160;BME280;50187;50.492;12.134;2023-10-13T06:21:36;97461.56;;;20.42;52.49
20160;BME280;50187;50.492;12.134;2023-10-13T06:24:40;97473.72;;;20.38;52.33
20160;BME280;50187;50.492;12.134;2023-10-13T06:27:44;97471.66;;;20.40;52.51
20160;BME280;50187;50.492;12.134;2023-10-13T06:30:59;97465.44;;;20.39;52.65
20160;BME280;50187;50.492;12.134;2023-10-13T06:33:47;97476.06;;;20.41;52.42
20160;BME280;50187;50.492;12.134;2023-10-13T06:36:32;97475.72;;;20.36;52.43
20160;BME280;50187;50.492;12.134;2023-10-13T06:39:18;97465.25;;;20.41;52.51
20160;BME280;50187;50.492;12.134;2023-10-13T06:42:25;97452.25;;;20.36;52.57
20160;BME280;50187;50.492;12.134;2023-10-13T06:45:13;97460.88;;;20.40;52.47
20160;BME280;50187;50.492;12.134;2023-10-13T06:48:01;97444.16;;;20.36;52.41
20160;BME280;50187;50.492;12.134;2023-10-13T06:50:50;97441.78;;;20.41;52.49
20160;BME280;50187;50.492;12.134;2023-10-13T06:53:37;97438.59;;;20.38;52.44
20160;BME280;50187;50.492;12.134;2023-10-13T06:56:22;97463.56;;;20.40;52.32
20160;BME280;50187;50.492;12.134;2023-10-13T06:59:13;97440.25;;;20.39;52.31
20160;BME280;50187;50.492;12.134;2023-10-13T07:01:59;97445.66;;;20.39;52.34
20160;BME280;50187;50.492;12.134;2023-10-13T07:05:09;97455.47;;;20.40;52.27
20160;BME280;50187;50.492;12.134;2023-10-13T07:07:57;97435.88;;;20.38;52.18
20160;BME280;50187;50.492;12.134;2023-10-13T07:10:54;97426.25;;;20.35;52.38
20160;BME280;50187;50.492;12.134;2023-10-13T07:14:03;97434.34;;;20.35;52.37
20160;BME280;50187;50.492;12.134;2023-10-13T07:16:59;97427.28;;;20.42;52.18
20160;BME280;50187;50.492;12.134;2023-10-13T07:19:45;97427.28;;;20.42;52.47
20160;BME280;50187;50.492;12.134;2023-10-13T07:22:38;97424.91;;;20.39;52.44
20160;BME280;50187;50.492;12.134;2023-10-13T07:25:25;97417.81;;;20.38;52.46
20160;BME280;50187;50.492;12.134;2023-10-13T07:28:12;97425.91;;;20.38;52.62
20160;BME280;50187;50.492;12.134;2023-10-13T07:31:00;97427.44;;;20.41;52.57
20160;BME280;50187;50.492;12.134;2023-10-13T07:33:45;97422.53;;;20.45;52.68
20160;BME280;50187;50.492;12.134;2023-10-13T07:36:31;97443.47;;;20.42;52.64
20160;BME280;50187;50.492;12.134;2023-10-13T07:39:24;97436.22;;;20.43;52.77
20160;BME280;50187;50.492;12.134;2023-10-13T07:42:10;97435.38;;;20.42;53.07
20160;BME280;50187;50.492;12.134;2023-10-13T07:45:06;97428.97;;;20.44;52.90
20160;BME280;50187;50.492;12.134;2023-10-13T07:47:51;97421.69;;;20.44;53.13
20160;BME280;50187;50.492;12.134;2023-10-13T07:50:37;97418.34;;;20.42;53.12
20160;BME280;50187;50.492;12.134;2023-10-13T07:53:22;97416.81;;;20.39;53.20
20160;BME280;50187;50.492;12.134;2023-10-13T07:56:12;97421.69;;;20.44;53.01
20160;BME280;50187;50.492;12.134;2023-10-13T07:58:58;97419.00;;;20.44;53.29
20160;BME280;50187;50.492;12.134;2023-10-13T08:01:49;97424.41;;;20.44;53.02
20160;BME280;50187;50.492;12.134;2023-10-13T08:04:55;97414.59;;;20.43;53.08
20160;BME280;50187;50.492;12.134;2023-10-13T08:07:41;97400.09;;;20.44;53.30
20160;BME280;50187;50.492;12.134;2023-10-13T08:10:28;97399.25;;;20.44;53.16
20160;BME280;50187;50.492;12.134;2023-10-13T08:13:15;97413.75;;;20.42;53.17
20160;BME280;50187;50.492;12.134;2023-10-13T08:16:01;97409.19;;;20.43;53.13
20160;BME280;50187;50.492;12.134;2023-10-13T08:18:52;97393.16;;;20.41;52.92
20160;BME280;50187;50.492;12.134;2023-10-13T08:21:37;97400.44;;;20.41;53.19
20160;BME280;50187;50.492;12.134;2023-10-13T08:24:23;97421.69;;;20.44;53.05
20160;BME280;50187;50.492;12.134;2023-10-13T08:27:34;97408.34;;;20.42;52.81
20160;BME280;50187;50.492;12.134;2023-10-13T08:30:20;97424.56;;;20.42;52.80
20160;BME280;50187;50.492;12.134;2023-10-13T08:33:12;97429.13;;;20.42;53.27
20160;BME280;50187;50.492;12.134;2023-10-13T08:36:07;97419.81;;;20.45;53.13
20160;BME280;50187;50.492;12.134;2023-10-13T08:39:11;97426.75;;;20.39;53.06
20160;BME280;50187;50.492;12.134;2023-10-13T08:42:16;97427.09;;;20.44;52.90
20160;BME280;50187;50.492;12.134;2023-10-13T08:45:08;97421.69;;;20.44;53.00
20160;BME280;50187;50.492;12.134;2023-10-13T08:48:14;97411.56;;;20.38;52.92
20160;BME280;50187;50.492;12.134;2023-10-13T08:51:02;97430.81;;;20.43;52.98
20160;BME280;50187;50.492;12.134;2023-10-13T08:54:00;97411.56;;;20.38;52.71
20160;BME280;50187;50.492;12.134;2023-10-13T08:56:54;97428.28;;;20.41;52.87
20160;BME280;50187;50.492;12.134;2023-10-13T08:59:42;97420.00;;;20.43;53.03
20160;BME280;50187;50.492;12.134;2023-10-13T09:02:38;97418.34;;;20.42;52.87
20160;BME280;50187;50.492;12.134;2023-10-13T09:05:43;97420.88;;;20.44;52.72
20160;BME280;50187;50.492;12.134;2023-10-13T09:08:47;97409.53;;;20.40;52.95
20160;BME280;50187;50.492;12.134;2023-10-13T09:12:14;97408.88;;;20.46;52.80
20160;BME280;50187;50.492;12.134;2023-10-13T09:15:08;97402.44;;;20.39;52.80
20160;BME280;50187;50.492;12.134;2023-10-13T09:17:59;97413.59;;;20.44;52.81
20160;BME280;50187;50.492;12.134;2023-10-13T09:21:01;97411.06;;;20.42;52.86
20160;BME280;50187;50.492;12.134;2023-10-13T09:24:18;97419.16;;;20.42;52.97
20160;BME280;50187;50.492;12.134;2023-10-13T09:27:09;97405.66;;;20.34;53.15
20160;BME280;50187;50.492;12.134;2023-10-13T09:29:59;97415.63;;;20.42;52.87
20160;BME280;50187;50.492;12.134;2023-10-13T09:33:05;97419.16;;;20.42;52.80
20160;BME280;50187;50.492;12.134;2023-10-13T09:35:53;97402.63;;;20.46;52.71
20160;BME280;50187;50.492;12.134;2023-10-13T09:38:39;97411.72;;;20.45;52.95
20160;BME280;50187;50.492;12.134;2023-10-13T09:41:33;97394.31;;;20.39;52.75
20160;BME280;50187;50.492;12.134;2023-10-13T09:44:22;97400.78;;;20.46;52.97
20160;BME280;50187;50.492;12.134;2023-10-13T09:47:10;97381.50;;;20.41;53.15
20160;BME280;50187;50.492;12.134;2023-10-13T09:50:04;97392.16;;;20.42;52.88
20160;BME280;50187;50.492;12.134;2023-10-13T09:53:00;97397.22;;;20.46;52.88
20160;BME280;50187;50.492;12.134;2023-10-13T09:56:07;97385.22;;;20.48;52.70
20160;BME280;50187;50.492;12.134;2023-10-13T09:59:06;97381.88;;;20.46;52.94
20160;BME280;50187;50.492;12.134;2023-10-13T10:01:55;97383.88;;;20.44;52.93
20160;BME280;50187;50.492;12.134;2023-10-13T10:04:54;97380.16;;;20.45;52.92
20160;BME280;50187;50.492;12.134;2023-10-13T10:07:40;97378.28;;;20.46;52.96
20160;BME280;50187;50.492;12.134;2023-10-13T10:10:56;97369.19;;;20.47;52.77
20160;BME280;50187;50.492;12.134;2023-10-13T10:17:05;97358.56;;;20.45;53.06
20160;BME280;50187;50.492;12.134;2023-10-13T10:19:55;97353.50;;;20.42;52.92
20160;BME280;50187;50.492;12.134;2023-10-13T10:22:42;97354.16;;;20.44;52.79
20160;BME280;50187;50.492;12.134;2023-10-13T10:25:35;97365.13;;;20.42;52.81
20160;BME280;50187;50.492;12.134;2023-10-13T10:28:20;97371.06;;;20.46;52.76
20160;BME280;50187;50.492;12.134;2023-10-13T10:31:06;97371.06;;;20.46;52.79
20160;BME280;50187;50.492;12.134;2023-10-13T10:33:57;97353.81;;;20.39;52.95
20160;BME280;50187;50.492;12.134;2023-10-13T10:36:42;97351.44;;;20.44;52.71
20160;BME280;50187;50.492;12.134;2023-10-13T10:39:38;97350.94;;;20.49;52.58
20160;BME280;50187;50.492;12.134;2023-10-13T10:42:33;97347.06;;;20.51;52.67
20160;BME280;50187;50.492;12.134;2023-10-13T10:45:19;97362.91;;;20.54;52.59
20160;BME280;50187;50.492;12.134;2023-10-13T10:48:07;97341.81;;;20.58;52.46
20160;BME280;50187;50.492;12.134;2023-10-13T10:51:03;97340.47;;;20.62;52.48
20160;BME280;50187;50.492;12.134;2023-10-13T10:54:00;97347.22;;;20.66;52.27
20160;BME280;50187;50.492;12.134;2023-10-13T10:57:01;97326.28;;;20.68;52.51
20160;BME280;50187;50.492;12.134;2023-10-13T11:00:20;97317.81;;;20.71;52.37
20160;BME280;50187;50.492;12.134;2023-10-13T11:03:07;97321.41;;;20.72;52.32
20160;BME280;50187;50.492;12.134;2023-10-13T11:05:52;97319.34;;;20.74;52.28
20160;BME280;50187;50.492;12.134;2023-10-13T11:08:37;97296.91;;;20.73;52.35
20160;BME280;50187;50.492;12.134;2023-10-13T11:11:30;97288.94;;;20.80;52.38
20160;BME280;50187;50.492;12.134;2023-10-13T11:14:25;97267.63;;;20.85;52.37
20160;BME280;50187;50.492;12.134;2023-10-13T11:17:10;97266.59;;;20.95;51.96
20160;BME280;50187;50.492;12.134;2023-10-13T11:20:11;97280.91;;;21.03;52.06
20160;BME280;50187;50.492;12.134;2023-10-13T11:23:10;97277.16;;;21.13;51.83
20160;BME280;50187;50.492;12.134;2023-10-13T11:26:00;97276.94;;;21.22;51.71
20160;BME280;50187;50.492;12.134;2023-10-13T11:28:52;97280.63;;;21.30;51.33
20160;BME280;50187;50.492;12.134;2023-10-13T11:31:37;97256.47;;;21.28;51.24
20160;BME280;50187;50.492;12.134;2023-10-13T11:34:23;97268.72;;;21.39;51.15
20160;BME280;50187;50.492;12.134;2023-10-13T11:37:08;97243.72;;;21.37;50.92
20160;BME280;50187;50.492;12.134;2023-10-13T11:40:20;97260.19;;;21.50;50.72
20160;BME280;50187;50.492;12.134;2023-10-13T11:43:25;97245.31;;;21.54;50.87
20160;BME280;50187;50.492;12.134;2023-10-13T11:46:12;97230.91;;;21.62;50.43
20160;BME280;50187;50.492;12.134;2023-10-13T11:49:09;97243.41;;;21.63;50.43
20160;BME280;50187;50.492;12.134;2023-10-13T11:52:00;97226.50;;;21.61;50.42
20160;BME280;50187;50.492;12.134;2023-10-13T11:55:03;97226.47;;;21.69;50.25
20160;BME280;50187;50.492;12.134;2023-10-13T11:57:49;97226.28;;;21.71;50.39
20160;BME280;50187;50.492;12.134;2023-10-13T12:00:34;97227.78;;;21.73;49.97
20160;BME280;50187;50.492;12.134;2023-10-13T12:03:48;97205.75;;;21.76;50.14
20160;BME280;50187;50.492;12.134;2023-10-13T12:06:52;97211.53;;;21.73;49.93
20160;BME280;50187;50.492;12.134;2023-10-13T12:09:57;97213.09;;;21.68;49.94
20160;BME280;50187;50.492;12.134;2023-10-13T12:12:42;97213.81;;;21.61;50.04
20160;BME280;50187;50.492;12.134;2023-10-13T12:15:29;97196.09;;;21.59;50.17
20160;BME280;50187;50.492;12.134;2023-10-13T12:18:22;97201.00;;;21.55;50.18
20160;BME280;50187;50.492;12.134;2023-10-13T12:21:09;97205.78;;;21.53;50.19
20160;BME280;50187;50.492;12.134;2023-10-13T12:23:55;97205.94;;;21.52;50.22
20160;BME280;50187;50.492;12.134;2023-10-13T12:26:41;97197.97;;;21.50;50.21
20160;BME280;50187;50.492;12.134;2023-10-13T12:29:27;97190.22;;;21.47;50.35
20160;BME280;50187;50.492;12.134;2023-10-13T12:32:14;97193.09;;;21.45;50.57
20160;BME280;50187;50.492;12.134;2023-10-13T12:35:05;97175.22;;;21.36;50.36
20160;BME280;50187;50.492;12.134;2023-10-13T12:37:52;97184.22;;;21.37;50.36
20160;BME280;50187;50.492;12.134;2023-10-13T12:40:49;97168.63;;;21.39;50.50
20160;BME280;50187;50.492;12.134;2023-10-13T12:44:08;97156.28;;;21.36;50.52
20160;BME280;50187;50.492;12.134;2023-10-13T12:47:12;97167.13;;;21.36;50.45
20160;BME280;50187;50.492;12.134;2023-10-13T12:50:16;97160.22;;;21.34;50.59
20160;BME280;50187;50.492;12.134;2023-10-13T12:53:19;97158.72;;;21.31;50.46
20160;BME280;50187;50.492;12.134;2023-10-13T12:56:04;97182.03;;;21.32;50.58
20160;BME280;50187;50.492;12.134;2023-10-13T12:58:49;97174.56;;;21.34;50.45
20160;BME280;50187;50.492;12.134;2023-10-13T13:01:37;97147.91;;;21.31;50.47
20160;BME280;50187;50.492;12.134;2023-10-13T13:04:27;97150.41;;;21.33;50.51
20160;BME280;50187;50.492;12.134;2023-10-13T13:07:17;97137.72;;;21.33;50.58
20160;BME280;50187;50.492;12.134;2023-10-13T13:10:02;97147.72;;;21.33;50.46
20160;BME280;50187;50.492;12.134;2023-10-13T13:12:47;97127.44;;;21.28;50.51
20160;BME280;50187;50.492;12.134;2023-10-13T13:15:32;97129.78;;;21.32;50.57
20160;BME280;50187;50.492;12.134;2023-10-13T13:18:18;97126.44;;;21.30;50.43
20160;BME280;50187;50.492;12.134;2023-10-13T13:21:04;97114.09;;;21.27;50.50
20160;BME280;50187;50.492;12.134;2023-10-13T13:23:51;97117.28;;;21.31;50.58
20160;BME280;50187;50.492;12.134;2023-10-13T13:26:39;97113.28;;;21.26;50.45
20160;BME280;50187;50.492;12.134;2023-10-13T13:29:29;97113.63;;;21.23;50.42
20160;BME280;50187;50.492;12.134;2023-10-13T13:32:14;97111.78;;;21.24;50.53
20160;BME280;50187;50.492;12.134;2023-10-13T13:35:04;97121.06;;;21.21;50.50
20160;BME280;50187;50.492;12.134;2023-10-13T13:37:50;97125.66;;;21.21;50.77
20160;BME280;50187;50.492;12.134;2023-10-13T13:40:39;97116.50;;;21.22;50.64
20160;BME280;50187;50.492;12.134;2023-10-13T13:43:24;97106.72;;;21.21;50.72
20160;BME280;50187;50.492;12.134;2023-10-13T13:46:36;97125.66;;;21.21;50.67
20160;BME280;50187;50.492;12.134;2023-10-13T13:49:26;97105.09;;;21.12;50.80
20160;BME280;50187;50.492;12.134;2023-10-13T13:52:26;97123.09;;;21.19;50.75
20160;BME280;50187;50.492;12.134;2023-10-13T13:55:19;97118.75;;;21.18;50.64
20160;BME280;50187;50.492;12.134;2023-10-13T13:58:05;97118.75;;;21.18;50.70
20160;BME280;50187;50.492;12.134;2023-10-13T14:00:59;97103.53;;;21.17;50.66
20160;BME280;50187;50.492;12.134;2023-10-13T14:03:46;97102.31;;;21.20;50.56
20160;BME280;50187;50.492;12.134;2023-10-13T14:06:35;97096.44;;;21.16;50.58
20160;BME280;50187;50.492;12.134;2023-10-13T14:09:23;97114.34;;;21.17;50.68
20160;BME280;50187;50.492;12.134;2023-10-13T14:12:25;97111.50;;;21.10;50.69
20160;BME280;50187;50.492;12.134;2023-10-13T14:15:14;97106.78;;;21.13;50.73
20160;BME280;50187;50.492;12.134;2023-10-13T14:18:09;97095.78;;;21.14;50.60
20160;BME280;50187;50.492;12.134;2023-10-13T14:21:02;97105.59;;;21.15;50.58
20160;BME280;50187;50.492;12.134;2023-10-13T14:23:50;97082.13;;;21.07;50.50
20160;BME280;50187;50.492;12.134;2023-10-13T14:26:36;97086.88;;;21.05;50.71
20160;BME280;50187;50.492;12.134;2023-10-13T14:29:22;97075.53;;;21.10;50.57
20160;BME280;50187;50.492;12.134;2023-10-13T14:32:15;97079.25;;;21.09;50.57
20160;BME280;50187;50.492;12.134;2023-10-13T14:35:00;97073.19;;;21.07;50.65
20160;BME280;50187;50.492;12.134;2023-10-13T14:37:56;97079.13;;;21.02;50.73
20160;BME280;50187;50.492;12.134;2023-10-13T14:40:41;97073.72;;;21.02;50.77
20160;BME280;50187;50.492;12.134;2023-10-13T14:43:27;97092.81;;;21.01;50.69
20160;BME280;50187;50.492;12.134;2023-10-13T14:46:16;97068.28;;;21.02;50.58
20160;BME280;50187;50.492;12.134;2023-10-13T14:49:02;97059.91;;;20.97;50.81
20160;BME280;50187;50.492;12.134;2023-10-13T14:51:47;97055.34;;;20.98;50.88
20160;BME280;50187;50.492;12.134;2023-10-13T14:54:34;97053.63;;;20.97;50.72
20160;BME280;50187;50.492;12.134;2023-10-13T14:57:19;97058.22;;;20.96;50.69
20160;BME280;50187;50.492;12.134;2023-10-13T15:00:10;97061.75;;;20.97;50.68
20160;BME280;50187;50.492;12.134;2023-10-13T15:03:01;97048.59;;;20.93;50.90
20160;BME280;50187;50.492;12.134;2023-10-13T15:05:47;97051.97;;;20.96;50.67
20160;BME280;50187;50.492;12.134;2023-10-13T15:08:32;97044.22;;;20.92;50.86